sensor_id;sensor_type;location;lat;lon;timestamp;temperature;humidity
27226;DHT22;14732;51.074;3.788;2023-04-03T00:01:12;4.80;99.90
27226;DHT22;14732;51.074;3.788;2023-04-03T00:03:38;4.80;99.90
27226;DHT22;14732;51.074;3.788;2023-04-03T00:06:05;4.80;99.90
27226;DHT22;14732;51.074;3.788;2023-04-03T00:08:36;4.80;99.90
27226;DHT22;14732;51.074;3.788;2023-04-03T00:11:03;4.80;99.90
27226;DHT22;14732;51.074;3.788;2023-04-03T00:13:29;4.80;99.90
27226;DHT22;14732;51.074;3.788;2023-04-03T00:15:55;4.70;99.90
27226;DHT22;14732;51.074;3.788;2023-04-03T00:18:21;4.70;99.90
27226;DHT22;14732;51.074;3.788;2023-04-03T00:20:47;4.70;99.90
27226;DHT22;14732;51.074;3.788;2023-04-03T00:23:13;4.70;99.90
27226;DHT22;14732;51.074;3.788;2023-04-03T00:25:39;4.60;99.90
27226;DHT22;14732;51.074;3.788;2023-04-03T00:28:05;4.60;99.90
27226;DHT22;14732;51.074;3.788;2023-04-03T00:30:31;4.60;99.90
27226;DHT22;14732;51.074;3.788;2023-04-03T00:32:57;4.50;99.90
27226;DHT22;14732;51.074;3.788;2023-04-03T00:35:24;4.50;99.90
27226;DHT22;14732;51.074;3.788;2023-04-03T00:37:54;4.50;99.90
27226;DHT22;14732;51.074;3.788;2023-04-03T00:40:23;4.50;99.90
27226;DHT22;14732;51.074;3.788;2023-04-03T00:42:53;4.40;99.90
27226;DHT22;14732;51.074;3.788;2023-04-03T00:45:36;4.40;99.90
27226;DHT22;14732;51.074;3.788;2023-04-03T00:48:05;4.40;99.90
27226;DHT22;14732;51.074;3.788;2023-04-03T00:50:34;4.30;99.90
27226;DHT22;14732;51.074;3.788;2023-04-03T00:53:01;4.30;99.90
27226;DHT22;14732;51.074;3.788;2023-04-03T00:55:27;4.30;99.90
27226;DHT22;14732;51.074;3.788;2023-04-03T00:57:55;4.30;99.90
27226;DHT22;14732;51.074;3.788;2023-04-03T01:00:22;4.30;99.90
27226;DHT22;14732;51.074;3.788;2023-04-03T01:02:50;4.20;99.90
27226;DHT22;14732;51.074;3.788;2023-04-03T01:05:17;4.20;99.90
27226;DHT22;14732;51.074;3.788;2023-04-03T01:07:45;4.20;99.90
27226;DHT22;14732;51.074;3.788;2023-04-03T01:10:12;4.20;99.90
27226;DHT22;14732;51.074;3.788;2023-04-03T01:12:42;4.20;99.90
27226;DHT22;14732;51.074;3.788;2023-04-03T01:15:23;4.20;99.90
27226;DHT22;14732;51.074;3.788;2023-04-03T01:17:52;4.20;99.90
27226;DHT22;14732;51.074;3.788;2023-04-03T01:22:59;4.20;99.90
27226;DHT22;14732;51.074;3.788;2023-04-03T01:25:31;4.20;99.90
27226;DHT22;14732;51.074;3.788;2023-04-03T01:27:57;4.20;99.90
27226;DHT22;14732;51.074;3.788;2023-04-03T01:30:28;4.10;99.90
27226;DHT22;14732;51.074;3.788;2023-04-03T01:32:55;4.10;99.90
27226;DHT22;14732;51.074;3.788;2023-04-03T01:35:22;4.10;99.90
27226;DHT22;14732;51.074;3.788;2023-04-03T01:37:47;4.10;99.90
27226;DHT22;14732;51.074;3.788;2023-04-03T01:40:13;4.10;99.90
27226;DHT22;14732;51.074;3.788;2023-04-03T01:42:39;4.00;99.90
27226;DHT22;14732;51.074;3.788;2023-04-03T01:45:05;4.00;99.90
27226;DHT22;14732;51.074;3.788;2023-04-03T01:47:31;4.00;99.90
27226;DHT22;14732;51.074;3.788;2023-04-03T01:49:56;4.00;99.90
27226;DHT22;14732;51.074;3.788;2023-04-03T01:52:22;4.00;99.90
27226;DHT22;14732;51.074;3.788;2023-04-03T01:54:48;4.00;99.90
27226;DHT22;14732;51.074;3.788;2023-04-03T01:57:13;4.00;99.90
27226;DHT22;14732;51.074;3.788;2023-04-03T01:59:40;4.00;99.90
27226;DHT22;14732;51.074;3.788;2023-04-03T02:02:06;4.00;99.90
27226;DHT22;14732;51.074;3.788;2023-04-03T02:04:32;4.00;99.90
27226;DHT22;14732;51.074;3.788;2023-04-03T02:06:58;4.00;99.90
27226;DHT22;14732;51.074;3.788;2023-04-03T02:09:24;4.00;99.90
27226;DHT22;14732;51.074;3.788;2023-04-03T02:11:50;4.10;99.90
27226;DHT22;14732;51.074;3.788;2023-04-03T02:14:15;4.00;99.90
27226;DHT22;14732;51.074;3.788;2023-04-03T02:16:41;4.00;99.90
27226;DHT22;14732;51.074;3.788;2023-04-03T02:19:07;4.00;99.90
27226;DHT22;14732;51.074;3.788;2023-04-03T02:21:32;4.00;99.90
27226;DHT22;14732;51.074;3.788;2023-04-03T02:23:58;3.90;99.90
27226;DHT22;14732;51.074;3.788;2023-04-03T02:26:24;3.90;99.90
27226;DHT22;14732;51.074;3.788;2023-04-03T02:28:51;4.00;99.90
27226;DHT22;14732;51.074;3.788;2023-04-03T02:31:16;3.90;99.90
27226;DHT22;14732;51.074;3.788;2023-04-03T02:33:43;4.00;99.90
27226;DHT22;14732;51.074;3.788;2023-04-03T02:36:08;3.90;99.90
27226;DHT22;14732;51.074;3.788;2023-04-03T02:38:34;3.90;99.90
27226;DHT22;14732;51.074;3.788;2023-04-03T02:41:10;3.90;99.90
27226;DHT22;14732;51.074;3.788;2023-04-03T02:43:36;4.00;99.90
27226;DHT22;14732;51.074;3.788;2023-04-03T02:46:02;4.00;99.90
27226;DHT22;14732;51.074;3.788;2023-04-03T02:48:29;4.00;99.90
27226;DHT22;14732;51.074;3.788;2023-04-03T02:50:55;4.00;99.90
27226;DHT22;14732;51.074;3.788;2023-04-03T02:53:20;4.00;99.90
27226;DHT22;14732;51.074;3.788;2023-04-03T02:55:46;4.00;99.90
27226;DHT22;14732;51.074;3.788;2023-04-03T02:58:12;4.00;99.90
27226;DHT22;14732;51.074;3.788;2023-04-03T03:00:38;4.00;99.90
27226;DHT22;14732;51.074;3.788;2023-04-03T03:03:04;3.90;99.90
27226;DHT22;14732;51.074;3.788;2023-04-03T03:05:30;3.90;99.90
27226;DHT22;14732;51.074;3.788;2023-04-03T03:07:55;3.90;99.90
27226;DHT22;14732;51.074;3.788;2023-04-03T03:10:22;3.90;99.90
27226;DHT22;14732;51.074;3.788;2023-04-03T03:12:48;3.80;99.90
27226;DHT22;14732;51.074;3.788;2023-04-03T03:15:13;3.80;99.90
27226;DHT22;14732;51.074;3.788;2023-04-03T03:17:40;3.80;99.90
27226;DHT22;14732;51.074;3.788;2023-04-03T03:20:07;3.70;99.90
27226;DHT22;14732;51.074;3.788;2023-04-03T03:22:34;3.70;99.90
27226;DHT22;14732;51.074;3.788;2023-04-03T03:25:00;3.60;99.90
27226;DHT22;14732;51.074;3.788;2023-04-03T03:27:26;3.50;99.90
27226;DHT22;14732;51.074;3.788;2023-04-03T03:29:52;3.50;99.90
27226;DHT22;14732;51.074;3.788;2023-04-03T03:32:18;3.50;99.90
27226;DHT22;14732;51.074;3.788;2023-04-03T03:34:43;3.60;99.90
27226;DHT22;14732;51.074;3.788;2023-04-03T03:37:09;3.60;99.90
27226;DHT22;14732;51.074;3.788;2023-04-03T03:39:35;3.60;99.90
27226;DHT22;14732;51.074;3.788;2023-04-03T03:42:00;3.60;99.90
27226;DHT22;14732;51.074;3.788;2023-04-03T03:44:26;3.60;99.90
27226;DHT22;14732;51.074;3.788;2023-04-03T03:46:54;3.50;99.90
27226;DHT22;14732;51.074;3.788;2023-04-03T03:49:20;3.60;99.90
27226;DHT22;14732;51.074;3.788;2023-04-03T03:51:46;3.60;99.90
27226;DHT22;14732;51.074;3.788;2023-04-03T03:54:12;3.60;99.90
27226;DHT22;14732;51.074;3.788;2023-04-03T03:56:38;3.60;99.90
27226;DHT22;14732;51.074;3.788;2023-04-03T03:59:04;3.60;99.90
27226;DHT22;14732;51.074;3.788;2023-04-03T04:01:30;3.60;99.90
27226;DHT22;14732;51.074;3.788;2023-04-03T04:03:56;3.60;99.90
27226;DHT22;14732;51.074;3.788;2023-04-03T04:06:21;3.50;99.90
27226;DHT22;14732;51.074;3.788;2023-04-03T04:08:47;3.50;99.90
27226;DHT22;14732;51.074;3.788;2023-04-03T04:11:13;3.50;99.90
27226;DHT22;14732;51.074;3.788;2023-04-03T04:13:39;3.50;99.90
27226;DHT22;14732;51.074;3.788;2023-04-03T04:16:05;3.50;99.90
27226;DHT22;14732;51.074;3.788;2023-04-03T04:18:31;3.50;99.90
27226;DHT22;14732;51.074;3.788;2023-04-03T04:20:56;3.40;99.90
27226;DHT22;14732;51.074;3.788;2023-04-03T04:23:22;3.40;99.90
27226;DHT22;14732;51.074;3.788;2023-04-03T04:25:49;3.40;99.90
27226;DHT22;14732;51.074;3.788;2023-04-03T04:28:15;3.40;99.90
27226;DHT22;14732;51.074;3.788;2023-04-03T04:30:41;3.30;99.90
27226;DHT22;14732;51.074;3.788;2023-04-03T04:33:07;3.30;99.90
27226;DHT22;14732;51.074;3.788;2023-04-03T04:35:33;3.30;99.90
27226;DHT22;14732;51.074;3.788;2023-04-03T04:37:59;3.30;99.90
27226;DHT22;14732;51.074;3.788;2023-04-03T04:40:26;3.30;99.90
27226;DHT22;14732;51.074;3.788;2023-04-03T04:42:52;3.30;99.90
27226;DHT22;14732;51.074;3.788;2023-04-03T04:45:17;3.30;99.90
27226;DHT22;14732;51.074;3.788;2023-04-03T04:47:43;3.30;99.90
27226;DHT22;14732;51.074;3.788;2023-04-03T04:50:09;3.20;99.90
27226;DHT22;14732;51.074;3.788;2023-04-03T04:52:35;3.20;99.90
27226;DHT22;14732;51.074;3.788;2023-04-03T04:55:00;3.20;99.90
27226;DHT22;14732;51.074;3.788;2023-04-03T04:57:26;3.20;99.90
27226;DHT22;14732;51.074;3.788;2023-04-03T04:59:52;3.20;99.90
27226;DHT22;14732;51.074;3.788;2023-04-03T05:02:17;3.20;99.90
27226;DHT22;14732;51.074;3.788;2023-04-03T05:04:43;3.20;99.90
27226;DHT22;14732;51.074;3.788;2023-04-03T05:07:09;3.10;99.90
27226;DHT22;14732;51.074;3.788;2023-04-03T05:09:35;3.20;99.90
27226;DHT22;14732;51.074;3.788;2023-04-03T05:12:00;3.20;99.90
27226;DHT22;14732;51.074;3.788;2023-04-03T05:14:28;3.20;99.90
27226;DHT22;14732;51.074;3.788;2023-04-03T05:16:53;3.20;99.90
27226;DHT22;14732;51.074;3.788;2023-04-03T05:19:20;3.20;99.90
27226;DHT22;14732;51.074;3.788;2023-04-03T05:21:46;3.20;99.90
27226;DHT22;14732;51.074;3.788;2023-04-03T05:24:12;3.20;99.90
27226;DHT22;14732;51.074;3.788;2023-04-03T05:26:38;3.20;99.90
27226;DHT22;14732;51.074;3.788;2023-04-03T05:29:04;3.20;99.90
27226;DHT22;14732;51.074;3.788;2023-04-03T05:31:29;3.20;99.90
27226;DHT22;14732;51.074;3.788;2023-04-03T05:33:55;3.20;99.90
27226;DHT22;14732;51.074;3.788;2023-04-03T05:36:21;3.20;99.90
27226;DHT22;14732;51.074;3.788;2023-04-03T05:38:47;3.30;99.90
27226;DHT22;14732;51.074;3.788;2023-04-03T05:41:14;3.40;99.90
27226;DHT22;14732;51.074;3.788;2023-04-03T05:43:40;3.50;99.90
27226;DHT22;14732;51.074;3.788;2023-04-03T05:46:15;3.50;99.90
27226;DHT22;14732;51.074;3.788;2023-04-03T05:48:41;3.60;99.90
27226;DHT22;14732;51.074;3.788;2023-04-03T05:51:17;3.80;99.90
27226;DHT22;14732;51.074;3.788;2023-04-03T05:53:44;3.90;99.90
27226;DHT22;14732;51.074;3.788;2023-04-03T05:56:10;4.20;99.90
27226;DHT22;14732;51.074;3.788;2023-04-03T05:58:36;4.40;99.90
27226;DHT22;14732;51.074;3.788;2023-04-03T06:01:02;4.60;99.90
27226;DHT22;14732;51.074;3.788;2023-04-03T06:03:27;5.00;99.90
27226;DHT22;14732;51.074;3.788;2023-04-03T06:05:53;5.50;99.90
27226;DHT22;14732;51.074;3.788;2023-04-03T06:08:19;6.00;99.90
27226;DHT22;14732;51.074;3.788;2023-04-03T06:10:45;6.30;99.90
27226;DHT22;14732;51.074;3.788;2023-04-03T06:13:11;6.80;99.90
27226;DHT22;14732;51.074;3.788;2023-04-03T06:15:37;7.40;99.90
27226;DHT22;14732;51.074;3.788;2023-04-03T06:18:04;8.10;99.90
27226;DHT22;14732;51.074;3.788;2023-04-03T06:20:29;8.80;99.90
27226;DHT22;14732;51.074;3.788;2023-04-03T06:22:56;9.50;99.90
27226;DHT22;14732;51.074;3.788;2023-04-03T06:25:22;10.30;99.90
27226;DHT22;14732;51.074;3.788;2023-04-03T06:27:48;10.90;99.90
27226;DHT22;14732;51.074;3.788;2023-04-03T06:30:14;11.30;99.90
27226;DHT22;14732;51.074;3.788;2023-04-03T06:32:40;11.30;99.90
27226;DHT22;14732;51.074;3.788;2023-04-03T06:35:06;11.30;99.90
27226;DHT22;14732;51.074;3.788;2023-04-03T06:37:32;11.10;99.90
27226;DHT22;14732;51.074;3.788;2023-04-03T06:39:58;10.80;99.90
27226;DHT22;14732;51.074;3.788;2023-04-03T06:42:26;10.50;99.90
27226;DHT22;14732;51.074;3.788;2023-04-03T06:44:51;10.60;99.90
27226;DHT22;14732;51.074;3.788;2023-04-03T06:47:18;10.50;99.90
27226;DHT22;14732;51.074;3.788;2023-04-03T06:49:44;10.10;99.90
27226;DHT22;14732;51.074;3.788;2023-04-03T06:52:10;9.50;99.90
27226;DHT22;14732;51.074;3.788;2023-04-03T06:54:37;8.80;99.90
27226;DHT22;14732;51.074;3.788;2023-04-03T06:57:03;7.80;99.90
27226;DHT22;14732;51.074;3.788;2023-04-03T06:59:29;7.80;99.90
27226;DHT22;14732;51.074;3.788;2023-04-03T07:01:55;8.20;99.90
27226;DHT22;14732;51.074;3.788;2023-04-03T07:04:21;8.50;99.90
27226;DHT22;14732;51.074;3.788;2023-04-03T07:06:47;9.20;99.90
27226;DHT22;14732;51.074;3.788;2023-04-03T07:09:14;10.00;99.90
27226;DHT22;14732;51.074;3.788;2023-04-03T07:11:40;10.60;99.90
27226;DHT22;14732;51.074;3.788;2023-04-03T07:14:06;10.10;99.90
27226;DHT22;14732;51.074;3.788;2023-04-03T07:16:34;9.60;99.90
27226;DHT22;14732;51.074;3.788;2023-04-03T07:19:00;9.30;99.90
27226;DHT22;14732;51.074;3.788;2023-04-03T07:21:25;9.00;99.90
27226;DHT22;14732;51.074;3.788;2023-04-03T07:23:51;8.40;99.90
27226;DHT22;14732;51.074;3.788;2023-04-03T07:26:17;7.90;99.90
27226;DHT22;14732;51.074;3.788;2023-04-03T07:28:43;7.70;99.90
27226;DHT22;14732;51.074;3.788;2023-04-03T07:31:12;7.80;99.90
27226;DHT22;14732;51.074;3.788;2023-04-03T07:33:43;8.30;99.90
27226;DHT22;14732;51.074;3.788;2023-04-03T07:36:11;8.70;99.90
27226;DHT22;14732;51.074;3.788;2023-04-03T07:38:40;9.40;99.90
27226;DHT22;14732;51.074;3.788;2023-04-03T07:41:06;9.40;99.90
27226;DHT22;14732;51.074;3.788;2023-04-03T07:43:32;9.80;99.90
27226;DHT22;14732;51.074;3.788;2023-04-03T07:45:58;10.90;99.90
27226;DHT22;14732;51.074;3.788;2023-04-03T07:48:25;10.90;99.90
27226;DHT22;14732;51.074;3.788;2023-04-03T07:50:51;10.60;99.90
27226;DHT22;14732;51.074;3.788;2023-04-03T07:53:17;11.20;99.90
27226;DHT22;14732;51.074;3.788;2023-04-03T07:55:46;10.60;99.90
27226;DHT22;14732;51.074;3.788;2023-04-03T07:58:14;10.40;99.90
27226;DHT22;14732;51.074;3.788;2023-04-03T08:00:40;10.30;99.90
27226;DHT22;14732;51.074;3.788;2023-04-03T08:03:07;9.90;99.90
27226;DHT22;14732;51.074;3.788;2023-04-03T08:05:39;10.70;99.90
27226;DHT22;14732;51.074;3.788;2023-04-03T08:08:06;11.60;99.90
27226;DHT22;14732;51.074;3.788;2023-04-03T08:10:32;11.30;99.90
27226;DHT22;14732;51.074;3.788;2023-04-03T08:12:58;12.70;99.90
27226;DHT22;14732;51.074;3.788;2023-04-03T08:15:24;12.60;99.90
27226;DHT22;14732;51.074;3.788;2023-04-03T08:17:50;12.40;99.90
27226;DHT22;14732;51.074;3.788;2023-04-03T08:20:16;12.70;99.90
27226;DHT22;14732;51.074;3.788;2023-04-03T08:22:42;12.40;99.90
27226;DHT22;14732;51.074;3.788;2023-04-03T08:25:08;12.20;99.90
27226;DHT22;14732;51.074;3.788;2023-04-03T08:27:34;12.40;99.90
27226;DHT22;14732;51.074;3.788;2023-04-03T08:30:00;11.90;99.90
27226;DHT22;14732;51.074;3.788;2023-04-03T08:32:25;11.50;99.90
27226;DHT22;14732;51.074;3.788;2023-04-03T08:34:52;11.90;99.90
27226;DHT22;14732;51.074;3.788;2023-04-03T08:37:18;12.40;99.90
27226;DHT22;14732;51.074;3.788;2023-04-03T08:39:44;12.40;99.90
27226;DHT22;14732;51.074;3.788;2023-04-03T08:42:33;13.30;99.90
27226;DHT22;14732;51.074;3.788;2023-04-03T08:45:27;13.10;99.90
27226;DHT22;14732;51.074;3.788;2023-04-03T08:48:05;13.40;99.90
27226;DHT22;14732;51.074;3.788;2023-04-03T08:50:44;13.00;99.90
27226;DHT22;14732;51.074;3.788;2023-04-03T08:53:24;12.90;99.90
27226;DHT22;14732;51.074;3.788;2023-04-03T08:55:53;12.90;99.90
27226;DHT22;14732;51.074;3.788;2023-04-03T08:58:28;14.40;99.90
27226;DHT22;14732;51.074;3.788;2023-04-03T09:01:02;15.00;99.90
27226;DHT22;14732;51.074;3.788;2023-04-03T09:03:31;14.90;99.90
27226;DHT22;14732;51.074;3.788;2023-04-03T09:06:11;14.40;99.90
27226;DHT22;14732;51.074;3.788;2023-04-03T09:11:47;16.00;99.90
27226;DHT22;14732;51.074;3.788;2023-04-03T09:17:04;18.00;99.90
27226;DHT22;14732;51.074;3.788;2023-04-03T09:24:40;20.80;93.40
27226;DHT22;14732;51.074;3.788;2023-04-03T09:27:10;21.20;94.50
27226;DHT22;14732;51.074;3.788;2023-04-03T09:29:40;20.50;91.40
27226;DHT22;14732;51.074;3.788;2023-04-03T09:34:54;17.90;92.20
27226;DHT22;14732;51.074;3.788;2023-04-03T09:40:40;14.40;95.90
27226;DHT22;14732;51.074;3.788;2023-04-03T09:43:27;13.60;98.60
27226;DHT22;14732;51.074;3.788;2023-04-03T09:45:55;12.20;99.90
27226;DHT22;14732;51.074;3.788;2023-04-03T09:48:23;11.60;99.90
27226;DHT22;14732;51.074;3.788;2023-04-03T09:53:39;10.40;99.90
27226;DHT22;14732;51.074;3.788;2023-04-03T09:56:28;10.10;99.90
27226;DHT22;14732;51.074;3.788;2023-04-03T10:01:33;9.60;99.90
27226;DHT22;14732;51.074;3.788;2023-04-03T10:04:12;9.70;99.90
27226;DHT22;14732;51.074;3.788;2023-04-03T10:06:49;9.70;99.90
27226;DHT22;14732;51.074;3.788;2023-04-03T10:09:29;10.00;99.90
27226;DHT22;14732;51.074;3.788;2023-04-03T10:12:06;10.20;99.90
27226;DHT22;14732;51.074;3.788;2023-04-03T10:14:39;10.10;99.90
27226;DHT22;14732;51.074;3.788;2023-04-03T10:17:18;10.10;99.90
27226;DHT22;14732;51.074;3.788;2023-04-03T10:22:37;10.20;99.90
27226;DHT22;14732;51.074;3.788;2023-04-03T10:25:27;10.10;99.90
27226;DHT22;14732;51.074;3.788;2023-04-03T10:28:01;10.00;99.90
27226;DHT22;14732;51.074;3.788;2023-04-03T10:33:30;10.10;99.90
27226;DHT22;14732;51.074;3.788;2023-04-03T10:36:33;10.00;99.90
27226;DHT22;14732;51.074;3.788;2023-04-03T10:42:52;10.40;99.90
27226;DHT22;14732;51.074;3.788;2023-04-03T10:48:02;10.20;99.90
27226;DHT22;14732;51.074;3.788;2023-04-03T10:53:39;10.30;99.90
27226;DHT22;14732;51.074;3.788;2023-04-03T10:58:47;10.50;99.90
27226;DHT22;14732;51.074;3.788;2023-04-03T11:01:36;10.50;99.90
27226;DHT22;14732;51.074;3.788;2023-04-03T11:04:04;10.30;99.90
27226;DHT22;14732;51.074;3.788;2023-04-03T11:09:22;10.30;99.90
27226;DHT22;14732;51.074;3.788;2023-04-03T11:11:53;10.40;99.90
27226;DHT22;14732;51.074;3.788;2023-04-03T11:14:31;10.60;99.90
27226;DHT22;14732;51.074;3.788;2023-04-03T11:17:33;10.50;99.90
27226;DHT22;14732;51.074;3.788;2023-04-03T11:22:47;10.60;99.90
27226;DHT22;14732;51.074;3.788;2023-04-03T11:25:19;10.80;99.90
27226;DHT22;14732;51.074;3.788;2023-04-03T11:28:01;11.00;99.90
27226;DHT22;14732;51.074;3.788;2023-04-03T11:30:39;10.90;99.90
27226;DHT22;14732;51.074;3.788;2023-04-03T11:35:44;10.80;99.90
27226;DHT22;14732;51.074;3.788;2023-04-03T11:38:33;11.10;99.90
27226;DHT22;14732;51.074;3.788;2023-04-03T11:41:06;10.90;99.90
27226;DHT22;14732;51.074;3.788;2023-04-03T11:43:33;10.90;99.90
27226;DHT22;14732;51.074;3.788;2023-04-03T11:46:01;10.70;99.90
27226;DHT22;14732;51.074;3.788;2023-04-03T11:56:58;11.10;99.90
27226;DHT22;14732;51.074;3.788;2023-04-03T11:59:24;11.10;99.90
27226;DHT22;14732;51.074;3.788;2023-04-03T12:01:56;11.30;99.90
27226;DHT22;14732;51.074;3.788;2023-04-03T12:04:25;11.20;99.90
27226;DHT22;14732;51.074;3.788;2023-04-03T12:06:58;11.30;99.90
27226;DHT22;14732;51.074;3.788;2023-04-03T12:09:29;11.50;99.90
27226;DHT22;14732;51.074;3.788;2023-04-03T12:11:59;11.40;99.90
27226;DHT22;14732;51.074;3.788;2023-04-03T12:14:26;11.40;99.90
27226;DHT22;14732;51.074;3.788;2023-04-03T12:16:56;11.50;99.90
27226;DHT22;14732;51.074;3.788;2023-04-03T12:19:35;11.60;99.90
27226;DHT22;14732;51.074;3.788;2023-04-03T12:24:37;11.50;99.90
27226;DHT22;14732;51.074;3.788;2023-04-03T12:27:28;11.30;99.90
27226;DHT22;14732;51.074;3.788;2023-04-03T12:35:16;11.20;99.90
27226;DHT22;14732;51.074;3.788;2023-04-03T12:41:26;11.10;99.90
27226;DHT22;14732;51.074;3.788;2023-04-03T12:43:54;11.20;99.90
27226;DHT22;14732;51.074;3.788;2023-04-03T12:46:33;11.30;99.90
27226;DHT22;14732;51.074;3.788;2023-04-03T12:49:01;11.40;99.90
27226;DHT22;14732;51.074;3.788;2023-04-03T12:56:40;11.10;99.90
27226;DHT22;14732;51.074;3.788;2023-04-03T12:59:21;11.00;99.90
27226;DHT22;14732;51.074;3.788;2023-04-03T13:01:58;10.90;99.90
27226;DHT22;14732;51.074;3.788;2023-04-03T13:04:26;11.10;99.90
27226;DHT22;14732;51.074;3.788;2023-04-03T13:06:52;11.30;99.90
27226;DHT22;14732;51.074;3.788;2023-04-03T13:09:27;11.50;99.90
27226;DHT22;14732;51.074;3.788;2023-04-03T13:12:13;11.70;99.90
27226;DHT22;14732;51.074;3.788;2023-04-03T13:14:39;11.90;99.90
27226;DHT22;14732;51.074;3.788;2023-04-03T13:17:13;11.80;99.90
27226;DHT22;14732;51.074;3.788;2023-04-03T13:19:40;11.50;98.50
27226;DHT22;14732;51.074;3.788;2023-04-03T13:22:36;11.40;99.90
27226;DHT22;14732;51.074;3.788;2023-04-03T13:25:06;11.40;99.90
27226;DHT22;14732;51.074;3.788;2023-04-03T13:27:33;11.50;99.70
27226;DHT22;14732;51.074;3.788;2023-04-03T13:30:01;11.60;99.90
27226;DHT22;14732;51.074;3.788;2023-04-03T13:32:30;11.40;99.40
27226;DHT22;14732;51.074;3.788;2023-04-03T13:34:57;11.30;95.90
27226;DHT22;14732;51.074;3.788;2023-04-03T13:37:33;11.20;96.10
27226;DHT22;14732;51.074;3.788;2023-04-03T13:40:11;11.40;96.80
27226;DHT22;14732;51.074;3.788;2023-04-03T13:42:39;11.40;97.00
27226;DHT22;14732;51.074;3.788;2023-04-03T13:47:42;11.60;95.80
27226;DHT22;14732;51.074;3.788;2023-04-03T13:52:50;11.60;98.10
27226;DHT22;14732;51.074;3.788;2023-04-03T13:58:51;11.50;96.40
27226;DHT22;14732;51.074;3.788;2023-04-03T14:00:54;11.40;95.50
27226;DHT22;14732;51.074;3.788;2023-04-03T14:03:26;11.40;97.50
27226;DHT22;14732;51.074;3.788;2023-04-03T14:05:54;11.60;96.90
27226;DHT22;14732;51.074;3.788;2023-04-03T14:08:20;11.50;95.10
27226;DHT22;14732;51.074;3.788;2023-04-03T14:10:46;11.50;95.90
27226;DHT22;14732;51.074;3.788;2023-04-03T14:13:17;11.50;96.30
27226;DHT22;14732;51.074;3.788;2023-04-03T14:15:46;11.70;98.50
27226;DHT22;14732;51.074;3.788;2023-04-03T14:18:15;11.80;97.70
27226;DHT22;14732;51.074;3.788;2023-04-03T14:20:41;11.90;97.50
27226;DHT22;14732;51.074;3.788;2023-04-03T14:23:07;11.70;94.90
27226;DHT22;14732;51.074;3.788;2023-04-03T14:25:33;11.70;93.60
27226;DHT22;14732;51.074;3.788;2023-04-03T14:27:59;11.90;96.20
27226;DHT22;14732;51.074;3.788;2023-04-03T14:30:27;12.00;93.10
27226;DHT22;14732;51.074;3.788;2023-04-03T14:32:54;11.90;95.90
27226;DHT22;14732;51.074;3.788;2023-04-03T14:35:20;11.80;93.10
27226;DHT22;14732;51.074;3.788;2023-04-03T14:37:50;11.60;92.80
27226;DHT22;14732;51.074;3.788;2023-04-03T14:40:20;11.70;93.90
27226;DHT22;14732;51.074;3.788;2023-04-03T14:42:46;11.60;93.00
27226;DHT22;14732;51.074;3.788;2023-04-03T14:45:14;11.60;92.50
27226;DHT22;14732;51.074;3.788;2023-04-03T14:48:01;11.60;93.20
27226;DHT22;14732;51.074;3.788;2023-04-03T14:50:28;11.70;93.90
27226;DHT22;14732;51.074;3.788;2023-04-03T14:52:56;11.50;94.80
27226;DHT22;14732;51.074;3.788;2023-04-03T14:55:24;11.60;95.50
27226;DHT22;14732;51.074;3.788;2023-04-03T14:57:50;11.70;95.20
27226;DHT22;14732;51.074;3.788;2023-04-03T15:00:18;11.40;92.10
27226;DHT22;14732;51.074;3.788;2023-04-03T15:02:44;11.20;93.40
27226;DHT22;14732;51.074;3.788;2023-04-03T15:05:12;11.30;92.00
27226;DHT22;14732;51.074;3.788;2023-04-03T15:07:49;11.40;94.70
27226;DHT22;14732;51.074;3.788;2023-04-03T15:10:33;11.40;94.00
27226;DHT22;14732;51.074;3.788;2023-04-03T15:12:59;11.50;95.40
27226;DHT22;14732;51.074;3.788;2023-04-03T15:15:29;11.60;94.10
27226;DHT22;14732;51.074;3.788;2023-04-03T15:17:56;11.70;93.30
27226;DHT22;14732;51.074;3.788;2023-04-03T15:20:27;11.40;90.70
27226;DHT22;14732;51.074;3.788;2023-04-03T15:22:53;11.20;92.40
27226;DHT22;14732;51.074;3.788;2023-04-03T15:25:19;11.20;94.50
27226;DHT22;14732;51.074;3.788;2023-04-03T15:27:45;11.20;92.80
27226;DHT22;14732;51.074;3.788;2023-04-03T15:30:16;11.30;94.60
27226;DHT22;14732;51.074;3.788;2023-04-03T15:32:42;11.30;94.90
27226;DHT22;14732;51.074;3.788;2023-04-03T15:35:08;11.20;93.10
27226;DHT22;14732;51.074;3.788;2023-04-03T15:37:34;11.20;94.80
27226;DHT22;14732;51.074;3.788;2023-04-03T15:40:00;11.30;94.60
27226;DHT22;14732;51.074;3.788;2023-04-03T15:42:25;11.20;92.50
27226;DHT22;14732;51.074;3.788;2023-04-03T15:44:51;11.20;93.50
27226;DHT22;14732;51.074;3.788;2023-04-03T15:47:17;11.30;92.80
27226;DHT22;14732;51.074;3.788;2023-04-03T15:49:43;11.30;93.80
27226;DHT22;14732;51.074;3.788;2023-04-03T15:52:08;11.30;94.40
27226;DHT22;14732;51.074;3.788;2023-04-03T15:54:34;11.20;92.80
27226;DHT22;14732;51.074;3.788;2023-04-03T15:57:00;11.00;92.20
27226;DHT22;14732;51.074;3.788;2023-04-03T15:59:26;11.10;93.80
27226;DHT22;14732;51.074;3.788;2023-04-03T16:01:52;11.10;93.40
27226;DHT22;14732;51.074;3.788;2023-04-03T16:04:18;11.10;92.80
27226;DHT22;14732;51.074;3.788;2023-04-03T16:06:46;11.10;95.40
27226;DHT22;14732;51.074;3.788;2023-04-03T16:09:12;10.90;91.90
27226;DHT22;14732;51.074;3.788;2023-04-03T16:11:37;11.00;93.10
27226;DHT22;14732;51.074;3.788;2023-04-03T16:14:09;10.90;92.50
27226;DHT22;14732;51.074;3.788;2023-04-03T16:16:35;11.00;95.70
27226;DHT22;14732;51.074;3.788;2023-04-03T16:19:02;11.00;94.30
27226;DHT22;14732;51.074;3.788;2023-04-03T16:21:28;11.00;93.10
27226;DHT22;14732;51.074;3.788;2023-04-03T16:23:57;11.10;91.20
27226;DHT22;14732;51.074;3.788;2023-04-03T16:26:23;11.10;93.10
27226;DHT22;14732;51.074;3.788;2023-04-03T16:28:49;11.10;92.70
27226;DHT22;14732;51.074;3.788;2023-04-03T16:31:15;11.00;93.30
27226;DHT22;14732;51.074;3.788;2023-04-03T16:33:40;10.90;93.90
27226;DHT22;14732;51.074;3.788;2023-04-03T16:36:06;11.00;93.50
27226;DHT22;14732;51.074;3.788;2023-04-03T16:38:32;11.00;93.50
27226;DHT22;14732;51.074;3.788;2023-04-03T16:40:58;11.00;93.10
27226;DHT22;14732;51.074;3.788;2023-04-03T16:43:27;11.00;93.20
27226;DHT22;14732;51.074;3.788;2023-04-03T16:45:53;10.90;92.10
27226;DHT22;14732;51.074;3.788;2023-04-03T16:48:19;10.80;91.40
27226;DHT22;14732;51.074;3.788;2023-04-03T16:50:48;10.70;91.80
27226;DHT22;14732;51.074;3.788;2023-04-03T16:53:17;10.60;93.00
27226;DHT22;14732;51.074;3.788;2023-04-03T16:55:43;10.60;94.70
27226;DHT22;14732;51.074;3.788;2023-04-03T16:58:09;10.70;95.30
27226;DHT22;14732;51.074;3.788;2023-04-03T17:00:35;10.50;93.80
27226;DHT22;14732;51.074;3.788;2023-04-03T17:03:01;10.50;94.40
27226;DHT22;14732;51.074;3.788;2023-04-03T17:05:27;10.50;93.60
27226;DHT22;14732;51.074;3.788;2023-04-03T17:07:53;10.50;93.60
27226;DHT22;14732;51.074;3.788;2023-04-03T17:10:19;10.40;93.90